Time;durP1;ratioP1;P1;durP2;ratioP2;P2;SDS_P1;SDS_P2;PMS_P1;PMS_P2;Temp;Humidity;BMP_temperature;BMP_pressure;BME280_temperature;BME280_humidity;BME280_pressure;Samples;Min_cycle;Max_cycle;Signal;HPM_P1;HPM_P2
2021/07/25 00:00:55;;;;;;;33.50;24.70;;;18.60;99.90;;;;;;4958113;28;20041;-86
2021/07/25 00:03:22;;;;;;;28.73;20.92;;;18.60;99.90;;;;;;4948968;28;20038;-85
2021/07/25 00:05:47;;;;;;;52.22;27.58;;;18.60;99.90;;;;;;4954421;28;20141;-85
2021/07/25 00:08:13;;;;;;;42.33;26.23;;;18.60;99.90;;;;;;4953660;28;20507;-85
2021/07/25 00:10:44;;;;;;;88.68;30.17;;;18.60;99.90;;;;;;4966593;28;20517;-86
2021/07/25 00:13:11;;;;;;;37.13;26.52;;;18.60;99.90;;;;;;4966529;28;20043;-85
2021/07/25 00:15:37;;;;;;;32.45;25.50;;;18.60;99.90;;;;;;4951776;28;20059;-87
2021/07/25 00:18:03;;;;;;;78.53;30.13;;;18.60;99.90;;;;;;4965070;28;21588;-88
2021/07/25 00:20:29;;;;;;;42.00;27.42;;;18.60;99.90;;;;;;4975198;28;20544;-86
2021/07/25 00:22:56;;;;;;;66.22;29.33;;;18.60;99.90;;;;;;4971967;28;20050;-85
2021/07/25 00:25:22;;;;;;;31.92;24.85;;;18.60;99.90;;;;;;4952738;28;20509;-86
2021/07/25 00:27:54;;;;;;;56.42;27.73;;;18.60;99.90;;;;;;4992643;28;20051;-87
2021/07/25 00:30:22;;;;;;;36.57;24.80;;;18.50;99.90;;;;;;4967375;28;20030;-86
2021/07/25 00:32:48;;;;;;;46.67;26.88;;;18.50;99.90;;;;;;4970473;28;20031;-87
2021/07/25 00:35:17;;;;;;;27.60;22.08;;;18.50;99.90;;;;;;4967919;28;20045;-91
2021/07/25 00:37:44;;;;;;;22.80;19.48;;;18.50;99.90;;;;;;4966811;28;20109;-84
2021/07/25 00:40:36;;;;;;;24.67;19.27;;;18.50;99.90;;;;;;4945148;28;20552;-86
2021/07/25 00:43:03;;;;;;;30.48;19.17;;;18.40;99.90;;;;;;4964126;28;20035;-86
2021/07/25 00:45:29;;;;;;;22.88;18.90;;;18.40;99.90;;;;;;4966112;28;20763;-86
2021/07/25 00:47:55;;;;;;;53.28;23.58;;;18.40;99.90;;;;;;4938234;28;20062;-88
2021/07/25 00:50:22;;;;;;;32.40;20.27;;;18.40;99.90;;;;;;4951924;28;20027;-87
2021/07/25 00:52:48;;;;;;;20.05;17.45;;;18.40;99.90;;;;;;4936604;28;20500;-87
2021/07/25 00:55:14;;;;;;;26.20;19.50;;;18.40;99.90;;;;;;4967197;28;20031;-87
2021/07/25 00:57:40;;;;;;;28.45;21.38;;;18.40;99.90;;;;;;4952185;28;20043;-87
2021/07/25 01:00:10;;;;;;;25.25;19.65;;;18.40;99.90;;;;;;4945495;28;20050;-86
2021/07/25 01:03:14;;;;;;;29.02;20.88;;;18.40;99.90;;;;;;4921856;28;20043;-87
2021/07/25 01:06:02;;;;;;;25.02;17.33;;;18.40;99.90;;;;;;4967894;28;20062;-88
2021/07/25 01:08:46;;;;;;;30.70;21.83;;;18.40;99.90;;;;;;4972598;28;20027;-89
2021/07/25 01:11:13;;;;;;;21.23;18.90;;;18.40;99.90;;;;;;4992818;28;20102;-88
2021/07/25 01:13:41;;;;;;;24.52;19.60;;;18.40;99.90;;;;;;4988588;28;20042;-89
2021/07/25 01:16:07;;;;;;;28.90;21.42;;;18.40;99.90;;;;;;4989066;28;20042;-87
2021/07/25 01:18:45;;;;;;;22.42;18.73;;;18.30;99.90;;;;;;4991438;28;20047;-89
2021/07/25 01:21:13;;;;;;;28.75;21.70;;;18.30;99.90;;;;;;4976311;28;20038;-88
2021/07/25 01:23:38;;;;;;;38.28;23.23;;;18.30;99.90;;;;;;4969804;28;20038;-86
2021/07/25 01:26:06;;;;;;;38.30;23.30;;;18.30;99.90;;;;;;4970924;28;20039;-87
2021/07/25 01:28:37;;;;;;;38.15;23.58;;;18.30;99.90;;;;;;4971995;28;20444;-86
2021/07/25 01:31:21;;;;;;;46.55;26.13;;;18.30;99.90;;;;;;4954036;28;20039;-88
2021/07/25 01:33:54;;;;;;;39.85;24.45;;;18.20;99.90;;;;;;4983770;28;20061;-88
2021/07/25 01:36:26;;;;;;;35.30;22.75;;;18.20;99.90;;;;;;4984916;28;20039;-86
2021/07/25 01:38:53;;;;;;;44.55;22.88;;;18.20;99.90;;;;;;4979604;28;20062;-86
2021/07/25 01:41:18;;;;;;;44.35;22.98;;;18.10;99.90;;;;;;4951218;28;20045;-87
2021/07/25 01:43:47;;;;;;;29.35;18.55;;;18.10;99.90;;;;;;4982471;28;20034;-86
2021/07/25 01:46:14;;;;;;;25.15;16.45;;;18.10;99.90;;;;;;4969609;28;20066;-86
2021/07/25 01:48:42;;;;;;;22.00;14.93;;;18.10;99.90;;;;;;4954180;28;20382;-86
2021/07/25 01:51:10;;;;;;;26.55;16.58;;;18.00;99.90;;;;;;4954352;28;20051;-86
2021/07/25 01:53:36;;;;;;;21.52;13.90;;;18.00;99.90;;;;;;4953910;28;20121;-87
2021/07/25 01:56:02;;;;;;;20.77;12.40;;;18.00;99.90;;;;;;4954080;28;20522;-86
2021/07/25 01:58:28;;;;;;;15.07;11.30;;;17.90;99.90;;;;;;4937275;28;20405;-85
2021/07/25 02:00:54;;;;;;;13.23;9.52;;;17.90;99.90;;;;;;4968405;28;20034;-87
2021/07/25 02:03:21;;;;;;;13.32;9.27;;;17.90;99.90;;;;;;4985711;28;20441;-86
2021/07/25 02:05:48;;;;;;;15.35;9.60;;;17.90;99.90;;;;;;4937881;28;20537;-86
2021/07/25 02:08:15;;;;;;;17.23;10.10;;;17.90;99.90;;;;;;4939679;28;20479;-84
2021/07/25 02:10:52;;;;;;;16.23;11.23;;;17.80;99.90;;;;;;4953980;28;20464;-85
2021/07/25 02:13:20;;;;;;;15.93;11.98;;;17.80;99.90;;;;;;4975706;28;20473;-86
2021/07/25 02:15:46;;;;;;;15.63;11.77;;;17.80;99.90;;;;;;4963322;28;20339;-85
2021/07/25 02:18:12;;;;;;;30.58;15.85;;;17.80;99.90;;;;;;4981948;28;20658;-85
2021/07/25 02:20:38;;;;;;;22.13;14.60;;;17.70;99.90;;;;;;4955421;28;20037;-86
2021/07/25 02:23:04;;;;;;;29.38;18.02;;;17.70;99.90;;;;;;4953603;28;20043;-85
2021/07/25 02:25:30;;;;;;;27.90;16.48;;;17.60;99.90;;;;;;4945836;28;20575;-86
2021/07/25 02:27:56;;;;;;;27.30;16.75;;;17.60;99.90;;;;;;4961396;28;20030;-85
2021/07/25 02:30:22;;;;;;;26.25;15.80;;;17.60;99.90;;;;;;4952976;28;20038;-86
2021/07/25 02:32:48;;;;;;;26.35;16.35;;;17.60;99.90;;;;;;4937026;28;20489;-85
2021/07/25 02:35:14;;;;;;;25.67;15.95;;;17.50;99.90;;;;;;4953863;28;20045;-85
2021/07/25 02:37:39;;;;;;;25.30;16.23;;;17.50;99.90;;;;;;4969322;28;20066;-84
2021/07/25 02:43:51;;;;;;;31.63;18.70;;;17.30;99.90;;;;;;4898913;29;20148;-85
2021/07/25 02:46:20;;;;;;;26.20;16.35;;;17.30;99.90;;;;;;4861723;29;20048;-88
2021/07/25 02:48:48;;;;;;;37.30;19.77;;;17.30;99.90;;;;;;4869603;29;20045;-87
2021/07/25 02:51:14;;;;;;;27.75;17.63;;;17.30;99.90;;;;;;4893958;29;20054;-86
2021/07/25 02:53:40;;;;;;;43.53;21.45;;;17.30;99.90;;;;;;4896580;29;20046;-87
2021/07/25 02:56:06;;;;;;;46.30;20.73;;;17.30;99.90;;;;;;4914373;29;20043;-86
2021/07/25 02:58:32;;;;;;;47.35;20.38;;;17.30;99.90;;;;;;4914025;29;20445;-87
2021/07/25 03:01:11;;;;;;;34.25;18.50;;;17.30;99.90;;;;;;4910807;29;20115;-87
2021/07/25 03:03:40;;;;;;;27.52;16.80;;;17.30;99.90;;;;;;4912918;29;20074;-88
2021/07/25 03:06:07;;;;;;;37.80;18.67;;;17.30;99.90;;;;;;4901012;29;20162;-87
2021/07/25 03:08:34;;;;;;;35.90;17.63;;;17.30;99.90;;;;;;4913539;29;20907;-87
2021/07/25 03:11:01;;;;;;;27.27;16.52;;;17.30;99.90;;;;;;4897808;29;20148;-87
2021/07/25 03:13:27;;;;;;;23.50;15.40;;;17.20;99.90;;;;;;4916687;28;20043;-87
2021/07/25 03:15:53;;;;;;;27.35;17.08;;;17.20;99.90;;;;;;4957108;28;20042;-88
2021/07/25 03:18:19;;;;;;;21.13;14.68;;;17.10;99.90;;;;;;4949298;28;20054;-88
2021/07/25 03:20:45;;;;;;;22.17;15.40;;;17.10;99.90;;;;;;4968580;28;20035;-87
2021/07/25 03:23:11;;;;;;;33.83;18.45;;;17.00;99.90;;;;;;4945019;28;20046;-89
2021/07/25 03:25:37;;;;;;;25.77;17.23;;;17.00;99.90;;;;;;4957499;28;20417;-88
2021/07/25 03:28:03;;;;;;;27.15;16.92;;;16.90;99.90;;;;;;4938327;28;20085;-88
2021/07/25 03:30:29;;;;;;;25.95;15.95;;;16.90;99.90;;;;;;4953544;28;20054;-88
2021/07/25 03:32:55;;;;;;;30.45;18.00;;;16.90;99.90;;;;;;4946700;28;20046;-88
2021/07/25 03:35:21;;;;;;;30.17;18.17;;;16.90;99.90;;;;;;4938458;28;20053;-88
2021/07/25 03:37:47;;;;;;;28.83;17.23;;;16.90;99.90;;;;;;4984543;28;20035;-88
2021/07/25 03:40:14;;;;;;;28.85;18.08;;;16.90;99.90;;;;;;4951558;28;20074;-88
2021/07/25 03:42:40;;;;;;;46.47;22.02;;;16.90;99.90;;;;;;4953114;28;20039;-88
2021/07/25 03:45:09;;;;;;;38.92;21.70;;;16.90;99.90;;;;;;4935554;28;20486;-89
2021/07/25 03:47:38;;;;;;;;;;;16.90;99.90;;;;;;4968360;28;20544;-88
2021/07/25 03:50:08;;;;;;;33.65;20.10;;;16.90;99.90;;;;;;4952906;28;19918;-89
2021/07/25 03:52:35;;;;;;;40.80;20.70;;;16.90;99.90;;;;;;4954558;28;20137;-88
2021/07/25 03:55:04;;;;;;;42.38;22.20;;;16.90;99.90;;;;;;4940982;28;20051;-88
2021/07/25 03:57:32;;;;;;;46.00;24.55;;;17.00;99.90;;;;;;4956448;28;20086;-88
2021/07/25 03:59:57;;;;;;;51.30;25.80;;;16.90;99.90;;;;;;4959401;28;20058;-90
2021/07/25 04:02:23;;;;;;;60.88;28.98;;;17.00;99.90;;;;;;4921134;28;20074;-90
2021/07/25 04:04:49;;;;;;;69.93;31.20;;;17.00;99.90;;;;;;4953294;28;20039;-89
2021/07/25 04:07:16;;;;;;;83.97;34.70;;;17.00;99.90;;;;;;4961422;28;20092;-89
2021/07/25 04:09:41;;;;;;;68.68;32.00;;;17.10;99.90;;;;;;4952420;28;20053;-89
2021/07/25 04:12:08;;;;;;;85.65;35.72;;;17.10;99.90;;;;;;4951826;28;20239;-89
2021/07/25 04:14:34;;;;;;;86.15;36.22;;;17.10;99.90;;;;;;4967677;28;20049;-88
2021/07/25 04:17:04;;;;;;;62.85;32.80;;;17.10;99.90;;;;;;4945400;28;20490;-87
2021/07/25 04:19:30;;;;;;;82.32;37.13;;;17.10;99.90;;;;;;4966882;28;20039;-90
2021/07/25 04:22:00;;;;;;;91.10;37.33;;;17.20;99.90;;;;;;4946898;28;20497;-90
2021/07/25 04:24:26;;;;;;;57.70;31.55;;;17.30;99.90;;;;;;4977899;28;20568;-89
2021/07/25 04:26:53;;;;;;;84.85;37.60;;;17.30;99.90;;;;;;4952010;28;20050;-89
2021/07/25 04:29:22;;;;;;;71.28;33.97;;;17.30;99.90;;;;;;4936255;28;20050;-86
2021/07/25 04:31:49;;;;;;;71.25;34.25;;;17.40;99.90;;;;;;4967904;28;20171;-89
2021/07/25 04:34:15;;;;;;;77.68;33.63;;;17.40;99.90;;;;;;4957609;28;20089;-88
2021/07/25 04:36:43;;;;;;;60.38;30.65;;;17.40;99.90;;;;;;4984134;28;20143;-87
2021/07/25 04:39:09;;;;;;;61.22;31.23;;;17.30;99.90;;;;;;4965449;28;20038;-88
2021/07/25 04:41:56;;;;;;;68.15;34.13;;;17.40;99.90;;;;;;4982152;28;20038;-88
2021/07/25 04:44:41;;;;;;;80.88;36.55;;;17.40;99.90;;;;;;4968172;28;20047;-87
2021/07/25 04:47:14;;;;;;;96.15;40.92;;;17.50;99.90;;;;;;4967192;28;20034;-87
2021/07/25 04:49:47;;;;;;;79.40;37.90;;;17.50;99.90;;;;;;4975209;28;20564;-88
2021/07/25 04:52:16;;;;;;;87.03;39.80;;;17.50;99.90;;;;;;4966855;28;20045;-86
2021/07/25 04:54:45;;;;;;;94.13;39.85;;;17.50;99.90;;;;;;4967504;28;20182;-86
2021/07/25 04:57:17;;;;;;;87.60;40.28;;;17.50;99.90;;;;;;4965738;28;20035;-87
2021/07/25 04:59:48;;;;;;;72.45;36.70;;;17.60;99.90;;;;;;4966753;28;20031;-87
2021/07/25 05:02:16;;;;;;;94.15;42.08;;;17.50;99.90;;;;;;4964268;28;20042;-85
2021/07/25 05:04:42;;;;;;;97.88;44.53;;;17.50;99.90;;;;;;4968480;28;20046;-88
2021/07/25 05:07:21;;;;;;;100.85;43.78;;;17.60;99.90;;;;;;4968380;28;20654;-88
2021/07/25 05:09:47;;;;;;;115.45;48.20;;;17.60;99.90;;;;;;4969656;28;20042;-86
2021/07/25 05:12:41;;;;;;;110.50;47.20;;;17.60;99.90;;;;;;4951932;28;20039;-89
2021/07/25 05:15:25;;;;;;;145.30;54.03;;;17.60;99.90;;;;;;4963588;28;20039;-87
2021/07/25 05:18:01;;;;;;;129.05;53.55;;;17.70;99.90;;;;;;4954264;28;20141;-88
2021/07/25 05:20:48;;;;;;;161.80;59.03;;;17.70;99.90;;;;;;4956502;28;20046;-87
2021/07/25 05:23:24;;;;;;;118.95;52.45;;;17.80;99.90;;;;;;4978274;28;20504;-86
2021/07/25 05:25:52;;;;;;;119.20;54.72;;;17.80;99.90;;;;;;4956338;28;20043;-87
2021/07/25 05:28:22;;;;;;;102.63;50.53;;;17.80;99.90;;;;;;4955550;28;20053;-87
2021/07/25 05:30:53;;;;;;;129.70;54.95;;;17.80;99.90;;;;;;4977936;28;20510;-86
2021/07/25 05:33:25;;;;;;;162.32;61.75;;;17.90;99.90;;;;;;4959587;28;20092;-86
2021/07/25 05:35:51;;;;;;;140.88;59.63;;;17.90;99.90;;;;;;4976721;28;20093;-85
2021/07/25 05:38:17;;;;;;;142.15;60.80;;;17.90;99.90;;;;;;4960596;28;20039;-85
2021/07/25 05:40:44;;;;;;;132.27;57.72;;;17.90;99.90;;;;;;4959312;28;20031;-86
2021/07/25 05:43:11;;;;;;;127.75;55.72;;;17.90;99.90;;;;;;4972497;28;20035;-85
2021/07/25 05:45:39;;;;;;;151.27;59.60;;;17.90;99.90;;;;;;4972312;28;20057;-87
2021/07/25 05:48:05;;;;;;;139.98;57.00;;;17.90;99.90;;;;;;4963798;28;20031;-86
2021/07/25 05:50:31;;;;;;;115.00;51.65;;;17.90;99.90;;;;;;4947188;28;20046;-87
2021/07/25 05:52:58;;;;;;;106.50;50.42;;;18.00;99.90;;;;;;4958146;28;20046;-85
2021/07/25 05:55:26;;;;;;;96.30;47.88;;;18.00;99.90;;;;;;4924621;28;20038;-86
2021/07/25 05:57:53;;;;;;;102.95;50.40;;;18.00;99.90;;;;;;4969088;28;20142;-86
2021/07/25 06:00:19;;;;;;;101.38;48.88;;;17.90;99.90;;;;;;4969173;28;20035;-87
2021/07/25 06:02:56;;;;;;;97.43;48.92;;;18.00;99.90;;;;;;4942898;28;20043;-86
2021/07/25 06:05:23;;;;;;;118.97;51.58;;;18.00;99.90;;;;;;4961071;28;20042;-85
2021/07/25 06:07:49;;;;;;;91.13;46.63;;;18.00;99.90;;;;;;4969968;28;20033;-88
2021/07/25 06:10:16;;;;;;;96.53;45.05;;;18.00;99.90;;;;;;4968380;28;20090;-89
2021/07/25 06:12:43;;;;;;;87.38;43.95;;;18.00;99.90;;;;;;4971569;28;20117;-87
2021/07/25 06:15:10;;;;;;;100.72;45.80;;;18.10;99.90;;;;;;4969709;28;20043;-85
2021/07/25 06:17:35;;;;;;;70.97;39.08;;;18.10;99.90;;;;;;4955350;28;20117;-88
2021/07/25 06:20:02;;;;;;;67.35;37.83;;;18.10;99.90;;;;;;4974079;28;20047;-88
2021/07/25 06:22:38;;;;;;;88.28;42.45;;;18.10;99.90;;;;;;4975903;28;20131;-88
2021/07/25 06:25:04;;;;;;;61.25;35.22;;;18.20;99.90;;;;;;4986014;28;20035;-87
2021/07/25 06:27:30;;;;;;;52.83;31.73;;;18.20;99.90;;;;;;4976779;28;20026;-88
2021/07/25 06:29:56;;;;;;;48.80;31.77;;;18.30;99.90;;;;;;4970327;28;20493;-89
2021/07/25 06:32:21;;;;;;;59.63;34.03;;;18.30;99.90;;;;;;4970905;28;20082;-87
2021/07/25 06:34:47;;;;;;;52.40;32.10;;;18.30;99.90;;;;;;4983315;28;20042;-88
2021/07/25 06:37:13;;;;;;;41.88;28.45;;;18.30;99.90;;;;;;4956081;28;20039;-87
2021/07/25 06:39:39;;;;;;;39.75;26.52;;;18.40;99.90;;;;;;4989564;28;20267;-87
2021/07/25 06:42:05;;;;;;;37.35;26.23;;;18.40;99.90;;;;;;4941873;28;20437;-87
2021/07/25 06:44:31;;;;;;;43.70;28.95;;;18.40;99.90;;;;;;4922464;28;20030;-89
2021/07/25 06:46:57;;;;;;;40.47;26.02;;;18.40;99.90;;;;;;4973156;28;20829;-88
2021/07/25 06:49:23;;;;;;;44.90;30.30;;;18.50;99.90;;;;;;4959683;28;20120;-88
2021/07/25 06:51:48;;;;;;;36.72;25.08;;;18.50;99.90;;;;;;4991043;28;20053;-85
2021/07/25 06:54:14;;;;;;;42.35;28.95;;;18.60;99.90;;;;;;4942349;28;20041;-89
2021/07/25 06:56:40;;;;;;;46.05;31.65;;;18.60;99.90;;;;;;4955634;28;20042;-85
2021/07/25 06:59:06;;;;;;;45.50;31.15;;;18.60;99.90;;;;;;4954530;28;20038;-86
2021/07/25 07:01:32;;;;;;;59.22;33.40;;;18.70;99.90;;;;;;4986328;28;20042;-87
2021/07/25 07:03:57;;;;;;;47.28;30.70;;;18.70;99.90;;;;;;4955940;28;20118;-86
2021/07/25 07:06:23;;;;;;;47.65;29.83;;;18.60;99.90;;;;;;4944662;28;20039;-87
2021/07/25 07:08:49;;;;;;;44.83;29.38;;;18.60;99.90;;;;;;4984143;28;20085;-86
2021/07/25 07:11:16;;;;;;;42.60;28.10;;;18.60;99.90;;;;;;4971454;28;20038;-86
2021/07/25 07:13:42;;;;;;;41.90;29.73;;;18.50;99.90;;;;;;4959898;28;20038;-86
2021/07/25 07:16:08;;;;;;;49.13;31.98;;;18.50;99.90;;;;;;4977681;28;20035;-86
2021/07/25 07:18:34;;;;;;;49.08;33.30;;;18.50;99.90;;;;;;4976794;28;20042;-85
2021/07/25 07:20:59;;;;;;;52.25;35.13;;;18.50;99.90;;;;;;4968539;28;20034;-86
2021/07/25 07:23:25;;;;;;;58.20;36.65;;;18.60;99.90;;;;;;4977023;28;20057;-88
2021/07/25 07:25:53;;;;;;;52.47;36.17;;;18.70;99.90;;;;;;4971346;28;20482;-84
2021/07/25 07:28:21;;;;;;;51.42;35.90;;;18.80;99.90;;;;;;4969875;28;20038;-84
2021/07/25 07:30:48;;;;;;;46.45;34.47;;;18.90;99.90;;;;;;4954190;28;20046;-85
2021/07/25 07:33:16;;;;;;;52.35;37.15;;;19.00;99.90;;;;;;4970207;28;20042;-86
2021/07/25 07:35:42;;;;;;;55.33;39.33;;;18.90;99.90;;;;;;4953718;28;20035;-85
2021/07/25 07:38:10;;;;;;;56.72;38.28;;;19.00;99.90;;;;;;4969993;28;20053;-85
2021/07/25 07:40:38;;;;;;;57.15;37.47;;;19.00;99.90;;;;;;4967005;28;20047;-84
2021/07/25 07:43:05;;;;;;;64.20;39.35;;;19.00;99.90;;;;;;4969976;28;20494;-83
2021/07/25 07:45:31;;;;;;;55.65;38.92;;;19.10;99.90;;;;;;4968356;28;20049;-85
2021/07/25 07:47:57;;;;;;;61.15;42.65;;;19.00;99.90;;;;;;4955371;28;20031;-85
2021/07/25 07:50:23;;;;;;;62.28;42.20;;;19.00;99.90;;;;;;4966409;28;20478;-85
2021/07/25 07:52:50;;;;;;;56.25;38.58;;;19.00;99.90;;;;;;4945895;28;20097;-87
2021/07/25 07:55:17;;;;;;;53.38;37.65;;;19.00;99.90;;;;;;4977778;28;20045;-84
2021/07/25 07:57:43;;;;;;;57.58;40.05;;;19.10;99.90;;;;;;4967517;28;20042;-84
2021/07/25 08:00:11;;;;;;;59.75;41.67;;;19.10;99.90;;;;;;4954373;28;20446;-86
2021/07/25 08:02:38;;;;;;;64.47;43.80;;;19.10;99.90;;;;;;4957548;28;20041;-85
2021/07/25 08:05:05;;;;;;;77.22;49.80;;;19.10;99.90;;;;;;4949154;28;20053;-86
2021/07/25 08:07:31;;;;;;;70.97;47.55;;;19.10;99.90;;;;;;4971709;28;20476;-86
2021/07/25 08:09:57;;;;;;;66.75;45.33;;;19.20;99.90;;;;;;4972806;28;20114;-85
2021/07/25 08:12:23;;;;;;;70.20;47.55;;;19.20;99.90;;;;;;4954570;28;20046;-85
2021/07/25 08:14:49;;;;;;;67.22;47.00;;;19.20;99.90;;;;;;4954168;28;20413;-84
2021/07/25 08:17:15;;;;;;;69.82;46.08;;;19.40;99.90;;;;;;4968316;28;20235;-85
2021/07/25 08:19:41;;;;;;;56.58;41.72;;;19.40;99.90;;;;;;4969266;28;20683;-83
2021/07/25 08:22:07;;;;;;;62.75;43.15;;;19.50;99.90;;;;;;4972990;28;20039;-85
2021/07/25 08:24:39;;;;;;;57.28;42.67;;;19.50;99.90;;;;;;4967397;28;20097;-84
2021/07/25 08:27:09;;;;;;;61.95;44.33;;;19.40;99.90;;;;;;4971991;28;21192;-84
2021/07/25 08:29:36;;;;;;;60.47;43.03;;;19.40;99.90;;;;;;4964738;28;20457;-84
2021/07/25 08:32:04;;;;;;;65.93;46.00;;;19.40;99.90;;;;;;4951187;28;20038;-85
2021/07/25 08:34:29;;;;;;;66.57;46.53;;;19.40;99.90;;;;;;4955647;28;20067;-85
2021/07/25 08:36:56;;;;;;;61.50;44.42;;;19.40;99.90;;;;;;4988262;28;20073;-86
2021/07/25 08:39:22;;;;;;;61.83;45.92;;;19.40;99.90;;;;;;4971821;28;20037;-85
2021/07/25 08:41:48;;;;;;;70.68;47.15;;;19.50;99.90;;;;;;4968012;28;20042;-88
2021/07/25 08:44:38;;;;;;;66.07;48.30;;;19.50;99.90;;;;;;4979200;28;20043;-86
2021/07/25 08:47:19;;;;;;;64.55;47.45;;;19.60;99.90;;;;;;4976805;28;20039;-84
2021/07/25 08:50:03;;;;;;;56.05;41.35;;;19.70;99.90;;;;;;4986206;28;20130;-87
2021/07/25 08:52:33;;;;;;;55.20;40.97;;;19.70;99.90;;;;;;4995593;28;20042;-88
2021/07/25 08:55:12;;;;;;;54.97;42.30;;;19.70;99.90;;;;;;4950502;28;20129;-84
2021/07/25 08:57:42;;;;;;;58.22;42.20;;;19.70;99.90;;;;;;4966439;28;20070;-86
2021/07/25 09:00:12;;;;;;;65.10;46.78;;;19.70;99.90;;;;;;4954315;28;20489;-85
2021/07/25 09:02:45;;;;;;;61.38;46.33;;;19.70;99.90;;;;;;4963028;28;20046;-86
2021/07/25 09:05:12;;;;;;;69.65;51.30;;;19.80;99.90;;;;;;4940558;28;20047;-85
2021/07/25 09:07:40;;;;;;;66.43;49.85;;;19.90;99.90;;;;;;4949332;28;20043;-84
2021/07/25 09:10:34;;;;;;;74.38;54.08;;;20.10;99.90;;;;;;4961786;28;20043;-85
2021/07/25 09:13:15;;;;;;;83.15;58.33;;;20.20;99.90;;;;;;4933197;28;20834;-85
2021/07/25 09:15:45;;;;;;;82.30;59.65;;;20.40;99.90;;;;;;4950631;28;20035;-86
2021/07/25 09:18:31;;;;;;;82.57;59.65;;;20.50;99.90;;;;;;4978645;28;20039;-85
2021/07/25 09:20:58;;;;;;;81.07;59.85;;;20.60;99.90;;;;;;4959453;28;20050;-86
2021/07/25 09:23:25;;;;;;;82.65;59.20;;;20.70;99.90;;;;;;4945535;28;20174;-83
2021/07/25 09:25:53;;;;;;;84.38;62.50;;;20.80;99.90;;;;;;4954429;28;20050;-85
2021/07/25 09:28:32;;;;;;;83.43;64.38;;;20.80;99.90;;;;;;4961950;28;20043;-85
2021/07/25 09:31:14;;;;;;;83.75;63.00;;;20.80;99.90;;;;;;4935365;28;20101;-84
2021/07/25 09:33:44;;;;;;;92.25;66.85;;;20.80;99.90;;;;;;4946405;28;20054;-84
2021/07/25 09:36:19;;;;;;;88.60;64.10;;;20.80;99.90;;;;;;4945399;28;20051;-84
2021/07/25 09:38:46;;;;;;;78.78;59.40;;;20.80;99.90;;;;;;4954945;28;20514;-84
2021/07/25 09:41:18;;;;;;;75.20;55.85;;;20.90;99.90;;;;;;4934982;28;20035;-85
2021/07/25 09:44:04;;;;;;;75.90;54.22;;;21.00;99.90;;;;;;4975336;28;20039;-86
2021/07/25 09:46:49;;;;;;;73.55;55.13;;;21.00;99.90;;;;;;4951116;28;20188;-84
2021/07/25 09:50:13;;;;;;;66.70;50.28;;;21.00;99.90;;;;;;4957536;28;20045;-85
2021/07/25 09:52:43;;;;;;;60.47;45.92;;;21.10;99.90;;;;;;4892926;29;20047;-85
2021/07/25 09:59:27;;;;;;;53.42;39.90;;;21.30;99.90;;;;;;4946344;28;20396;-88
2021/07/25 10:06:27;;;;;;;42.53;32.85;;;21.50;99.90;;;;;;4859335;29;20056;-85
2021/07/25 10:09:32;;;;;;;44.90;32.40;;;21.70;99.90;;;;;;4907836;28;20157;-85
2021/07/25 10:12:01;;;;;;;42.97;32.97;;;21.60;99.60;;;;;;4873763;29;20044;-84
2021/07/25 10:14:46;;;;;;;41.95;32.40;;;21.60;99.20;;;;;;4870183;29;20052;-84
2021/07/25 10:18:09;;;;;;;45.38;35.15;;;21.60;99.20;;;;;;4893451;29;20526;-85
2021/07/25 10:20:46;;;;;;;41.17;33.58;;;21.60;99.90;;;;;;4893919;29;20120;-84
2021/07/25 10:23:17;;;;;;;43.63;33.92;;;21.80;99.60;;;;;;4912986;28;20564;-84
2021/07/25 10:25:48;;;;;;;44.60;35.17;;;21.80;99.00;;;;;;4954658;28;20051;-87
2021/07/25 10:28:18;;;;;;;45.08;35.10;;;21.90;99.00;;;;;;4970910;28;20034;-86
2021/07/25 10:30:45;;;;;;;46.65;34.75;;;22.00;98.90;;;;;;4970373;28;20088;-83
2021/07/25 10:33:14;;;;;;;44.08;34.50;;;22.00;99.00;;;;;;4951953;28;20093;-84
2021/07/25 10:35:41;;;;;;;39.85;31.52;;;22.10;98.60;;;;;;4953548;28;20461;-85
2021/07/25 10:38:07;;;;;;;38.03;31.98;;;22.20;98.90;;;;;;4968579;28;20031;-84
2021/07/25 10:40:35;;;;;;;40.88;31.02;;;22.40;98.80;;;;;;4952084;28;20561;-85
2021/07/25 10:43:02;;;;;;;40.85;32.85;;;22.50;98.20;;;;;;4950529;28;20276;-84
2021/07/25 10:45:27;;;;;;;37.47;30.58;;;22.60;97.90;;;;;;4971208;28;20129;-86
2021/07/25 10:48:12;;;;;;;31.25;25.33;;;22.60;98.00;;;;;;4951969;28;20038;-84
2021/07/25 10:50:38;;;;;;;32.47;26.00;;;22.60;98.00;;;;;;4974033;28;20061;-84
2021/07/25 10:53:04;;;;;;;31.90;26.15;;;22.60;97.10;;;;;;4970322;28;20466;-83
2021/07/25 10:55:35;;;;;;;30.05;24.02;;;22.60;96.60;;;;;;4969847;28;20305;-84
2021/07/25 10:58:08;;;;;;;33.20;25.98;;;22.60;96.60;;;;;;4965120;28;20049;-85
2021/07/25 11:00:52;;;;;;;30.92;23.58;;;22.50;96.80;;;;;;4966915;28;20092;-84
2021/07/25 11:04:01;;;;;;;29.48;23.25;;;22.50;96.90;;;;;;4984039;28;20027;-83
2021/07/25 11:08:08;;;;;;;26.52;23.25;;;22.50;97.10;;;;;;4941689;28;20122;-85
2021/07/25 11:11:54;;;;;;;30.75;23.80;;;22.60;97.20;;;;;;4926516;28;20049;-84
2021/07/25 11:15:32;;;;;;;28.35;23.05;;;22.50;97.30;;;;;;4866047;29;20140;-85
2021/07/25 11:18:37;;;;;;;29.40;22.92;;;22.40;97.60;;;;;;4852788;29;20049;-88
2021/07/25 11:22:00;;;;;;;32.15;25.10;;;22.40;97.70;;;;;;4914738;29;20742;-86
2021/07/25 11:25:36;;;;;;;34.47;26.85;;;22.40;97.70;;;;;;4795328;29;20043;-85
2021/07/25 11:28:52;;;;;;;35.17;27.10;;;22.40;97.60;;;;;;4718319;29;20509;-86
2021/07/25 11:31:19;;;;;;;29.75;25.17;;;22.30;98.20;;;;;;4812438;29;20061;-85
2021/07/25 11:34:09;;;;;;;34.15;25.27;;;22.30;98.30;;;;;;4823331;29;20053;-87
2021/07/25 11:37:13;;;;;;;21.85;18.45;;;22.20;98.20;;;;;;4853121;29;20182;-86
2021/07/25 11:44:08;;;;;;;16.58;14.77;;;22.20;97.40;;;;;;4839674;29;20132;-86
2021/07/25 11:47:27;;;;;;;20.75;16.23;;;22.00;97.20;;;;;;4783417;29;20093;-87
2021/07/25 11:50:45;;;;;;;22.60;17.75;;;21.90;97.50;;;;;;4804809;29;20145;-86
2021/07/25 11:53:51;;;;;;;18.98;16.60;;;21.90;97.60;;;;;;4830084;29;20054;-86
2021/07/25 11:57:28;;;;;;;27.80;20.35;;;21.90;97.90;;;;;;4848130;29;20204;-86
2021/07/25 11:59:58;;;;;;;25.15;19.95;;;22.00;98.20;;;;;;4832506;29;20386;-88
2021/07/25 12:02:27;;;;;;;29.88;19.15;;;22.20;98.80;;;;;;4808356;29;20136;-86
2021/07/25 12:04:57;;;;;;;21.33;16.50;;;22.40;98.60;;;;;;4854183;29;20432;-87
2021/07/25 12:07:31;;;;;;;20.60;16.85;;;22.50;97.60;;;;;;4851584;29;20053;-87
2021/07/25 12:10:34;;;;;;;22.30;16.60;;;22.60;97.10;;;;;;4818255;29;20045;-85
2021/07/25 12:13:17;;;;;;;20.00;15.10;;;22.70;96.70;;;;;;4896233;29;20104;-86
2021/07/25 12:15:43;;;;;;;16.95;15.00;;;22.70;97.00;;;;;;4887887;29;20056;-87
2021/07/25 12:18:09;;;;;;;20.15;17.02;;;22.80;97.10;;;;;;4848489;29;20040;-86
2021/07/25 12:20:36;;;;;;;18.27;15.10;;;22.90;96.90;;;;;;4861332;29;20064;-88
2021/07/25 12:23:05;;;;;;;18.13;14.98;;;22.90;96.90;;;;;;4855344;29;20491;-88
2021/07/25 12:25:35;;;;;;;18.98;14.70;;;23.00;96.90;;;;;;4915619;29;20187;-87
2021/07/25 12:28:15;;;;;;;18.42;14.55;;;23.10;96.70;;;;;;4908612;29;20131;-87
2021/07/25 12:30:57;;;;;;;17.73;15.18;;;23.10;96.80;;;;;;4928472;29;20050;-86
2021/07/25 12:33:30;;;;;;;16.55;13.88;;;23.20;97.00;;;;;;4894236;29;20047;-86
2021/07/25 12:36:08;;;;;;;18.35;13.40;;;23.30;96.70;;;;;;4913635;29;20464;-86
2021/07/25 12:38:34;;;;;;;14.35;12.50;;;23.40;96.20;;;;;;4883361;29;20047;-87
2021/07/25 12:41:03;;;;;;;16.85;13.02;;;23.40;95.80;;;;;;4915632;29;20126;-86
2021/07/25 12:43:29;;;;;;;16.40;13.10;;;23.40;95.50;;;;;;4923140;29;20066;-88
2021/07/25 12:45:56;;;;;;;14.57;12.55;;;23.40;95.30;;;;;;4903087;29;20055;-86
2021/07/25 12:48:24;;;;;;;16.55;11.73;;;23.30;95.50;;;;;;4912683;29;20051;-87
2021/07/25 12:53:31;;;;;;;17.10;12.18;;;23.30;95.60;;;;;;4942580;28;20429;-88
2021/07/25 12:55:59;;;;;;;16.15;12.55;;;23.50;95.40;;;;;;4937571;28;20125;-87
2021/07/25 12:58:36;;;;;;;17.40;13.15;;;23.50;95.40;;;;;;4966358;28;20522;-86
2021/07/25 13:03:45;;;;;;;14.85;12.25;;;23.60;95.30;;;;;;4979719;28;20035;-87
2021/07/25 13:06:19;;;;;;;15.00;11.25;;;23.70;95.10;;;;;;4956139;28;20035;-86
2021/07/25 13:08:47;;;;;;;14.57;10.10;;;23.70;94.80;;;;;;4938597;28;20073;-86
2021/07/25 13:11:17;;;;;;;14.73;10.75;;;23.60;94.60;;;;;;4953271;28;20050;-88
2021/07/25 13:13:47;;;;;;;15.48;12.35;;;23.70;94.80;;;;;;4978298;28;20065;-86